createdAt,value
2018-05-16T00:00:45.125Z,0
2018-05-16T00:01:55.280Z,0
2018-05-16T00:03:05.367Z,0
2018-05-16T00:04:15.506Z,0
2018-05-16T00:05:25.325Z,0
2018-05-16T00:06:35.386Z,0
2018-05-16T00:07:45.476Z,0
2018-05-16T00:08:55.546Z,0
2018-05-16T00:10:05.486Z,0
2018-05-16T00:11:15.306Z,0
2018-05-16T00:12:25.408Z,0
2018-05-16T00:13:35.489Z,0
2018-05-16T00:14:45.559Z,0
2018-05-16T00:15:55.681Z,0
2018-05-16T00:17:05.756Z,0
2018-05-16T00:18:15.924Z,0
2018-05-16T00:19:26.080Z,0
2018-05-16T00:20:35.913Z,0
2018-05-16T00:21:45.990Z,0
2018-05-16T00:22:55.784Z,0
2018-05-16T00:24:05.872Z,0
2018-05-16T00:25:15.692Z,0
2018-05-16T00:26:25.769Z,0
2018-05-16T00:27:35.891Z,0
2018-05-16T00:28:45.972Z,0
2018-05-16T00:29:56.040Z,0
2018-05-16T00:31:05.846Z,0
2018-05-16T00:32:15.908Z,0
2018-05-16T00:33:25.763Z,0
2018-05-16T00:34:35.828Z,0
2018-05-16T00:35:45.920Z,0
2018-05-16T00:36:55.757Z,0
2018-05-16T00:38:05.564Z,0
2018-05-16T00:39:15.643Z,0
2018-05-16T00:40:25.457Z,0
2018-05-16T00:41:35.277Z,0
2018-05-16T00:42:45.359Z,0
2018-05-16T00:43:55.181Z,0
2018-05-16T00:45:05.263Z,0
2018-05-16T00:46:15.065Z,0
2018-05-16T00:47:25.132Z,0
2018-05-16T00:48:34.934Z,0
2018-05-16T00:49:45.001Z,0
2018-05-16T00:50:55.077Z,0
2018-05-16T00:52:05.150Z,0
2018-05-16T00:53:15.237Z,0
2018-05-16T00:54:25.300Z,0
2018-05-16T00:55:35.381Z,0
2018-05-16T00:56:45.456Z,0
2018-05-16T00:57:55.528Z,0
2018-05-16T00:59:05.414Z,0
2018-05-16T01:00:15.505Z,0
2018-05-16T01:01:25.567Z,0
2018-05-16T01:02:35.638Z,0
2018-05-16T01:03:45.703Z,0
2018-05-16T01:04:55.779Z,0
2018-05-16T01:06:05.854Z,0
2018-05-16T01:07:15.675Z,0
2018-05-16T01:08:25.798Z,0
2018-05-16T01:09:35.966Z,0
2018-05-16T01:10:46.038Z,0
2018-05-16T01:11:55.857Z,0
2018-05-16T01:13:05.664Z,0
2018-05-16T01:14:15.734Z,0
2018-05-16T01:15:25.818Z,0
2018-05-16T01:16:35.649Z,0
2018-05-16T01:17:45.472Z,0
2018-05-16T01:18:55.542Z,0
2018-05-16T01:20:05.129Z,0
2018-05-16T01:21:15.216Z,0
2018-05-16T01:22:25.281Z,0
2018-05-16T01:23:35.092Z,0
2018-05-16T01:24:44.901Z,0
2018-05-16T01:25:55.014Z,0
2018-05-16T01:27:04.845Z,0
2018-05-16T01:28:14.649Z,0
2018-05-16T01:29:24.462Z,0
2018-05-16T01:30:34.283Z,0
2018-05-16T01:31:44.446Z,0
2018-05-16T01:32:54.516Z,0
2018-05-16T01:34:04.075Z,0
2018-05-16T01:35:14.152Z,0
2018-05-16T01:36:23.981Z,0
2018-05-16T01:37:34.104Z,0
2018-05-16T01:38:43.645Z,0
2018-05-16T01:39:53.787Z,0
2018-05-16T01:41:03.880Z,0
2018-05-16T01:42:13.707Z,0
2018-05-16T01:43:23.826Z,0
2018-05-16T01:44:33.649Z,0
2018-05-16T01:45:43.747Z,0
2018-05-16T01:46:53.926Z,0
2018-05-16T01:48:03.745Z,0
2018-05-16T01:49:13.821Z,0
2018-05-16T01:50:23.905Z,0
2018-05-16T01:51:33.996Z,0
2018-05-16T01:52:43.805Z,0
2018-05-16T01:53:53.626Z,0
2018-05-16T01:55:03.719Z,0
2018-05-16T01:56:13.536Z,0
2018-05-16T01:57:23.602Z,0
2018-05-16T01:58:33.152Z,0
2018-05-16T01:59:43.247Z,0
2018-05-16T02:00:53.330Z,0
2018-05-16T02:02:03.401Z,0
2018-05-16T02:03:12.951Z,0
2018-05-16T02:04:23.020Z,0
2018-05-16T02:05:32.820Z,0
2018-05-16T02:06:42.737Z,0
2018-05-16T02:07:52.807Z,0
2018-05-16T02:09:02.872Z,0
2018-05-16T02:10:12.938Z,0
2018-05-16T02:11:22.755Z,0
2018-05-16T02:12:32.828Z,0
2018-05-16T02:13:42.916Z,0
2018-05-16T02:14:52.985Z,0
2018-05-16T02:16:03.048Z,0
2018-05-16T02:17:12.592Z,0
2018-05-16T02:18:22.665Z,0
2018-05-16T02:19:32.741Z,0
2018-05-16T02:20:42.814Z,0
2018-05-16T02:21:52.892Z,0
2018-05-16T02:23:02.976Z,0
2018-05-16T02:24:13.106Z,0
2018-05-16T02:25:22.652Z,0
2018-05-16T02:26:32.732Z,0
2018-05-16T02:27:42.834Z,0
2018-05-16T02:28:52.919Z,0
2018-05-16T02:30:02.999Z,0
2018-05-16T02:31:12.847Z,0
2018-05-16T02:32:22.655Z,0
2018-05-16T02:33:32.749Z,0
2018-05-16T02:34:42.817Z,0
2018-05-16T02:35:52.683Z,0
2018-05-16T02:37:02.795Z,0
2018-05-16T02:38:12.880Z,0
2018-05-16T02:39:22.955Z,0
2018-05-16T02:40:33.021Z,0
2018-05-16T02:41:43.111Z,0
2018-05-16T02:42:53.170Z,0
2018-05-16T02:44:02.984Z,0
2018-05-16T02:45:12.816Z,0
2018-05-16T02:46:22.894Z,0
2018-05-16T02:47:33.294Z,0
2018-05-16T02:48:43.084Z,0
2018-05-16T02:49:52.888Z,0
2018-05-16T02:51:02.700Z,0
2018-05-16T02:52:12.802Z,0
2018-05-16T02:53:22.881Z,0
2018-05-16T02:54:33.376Z,0
2018-05-16T02:55:43.299Z,0
2018-05-16T02:56:53.379Z,0
2018-05-16T02:58:03.457Z,0
2018-05-16T02:59:13.258Z,0
2018-05-16T03:00:23.484Z,0
2018-05-16T03:01:33.556Z,0
2018-05-16T03:02:43.375Z,0
2018-05-16T03:34:18.331Z,5
2018-05-16T03:35:28.391Z,10
2018-05-16T03:36:38.534Z,10
2018-05-16T03:37:48.608Z,10
2018-05-16T03:38:58.683Z,10
2018-05-16T03:40:08.794Z,10
2018-05-16T03:41:18.845Z,10
2018-05-16T03:42:28.393Z,10
2018-05-16T03:43:38.198Z,10
2018-05-16T03:44:48.286Z,15
2018-05-16T03:45:58.385Z,15
2018-05-16T03:47:08.484Z,15
2018-05-16T03:48:18.555Z,15
2018-05-16T03:49:28.627Z,15
2018-05-16T03:50:38.450Z,20
2018-05-16T03:51:48.587Z,20
2018-05-16T03:52:58.680Z,25
2018-05-16T03:54:08.487Z,25
2018-05-16T03:55:18.565Z,25
2018-05-16T03:56:28.634Z,25
2018-05-16T03:57:38.729Z,25
2018-05-16T03:58:48.547Z,25
2018-05-16T03:59:58.637Z,30
2018-05-16T04:01:08.717Z,30
2018-05-16T04:02:19.071Z,30
2018-05-16T04:03:29.152Z,30
2018-05-16T04:04:39.225Z,30
2018-05-16T04:05:49.318Z,30
2018-05-16T04:06:59.413Z,30
2018-05-16T04:08:09.498Z,30
2018-05-16T04:09:19.620Z,30
2018-05-16T04:10:29.702Z,30
2018-05-16T04:11:39.782Z,30
2018-05-16T04:12:49.848Z,30
2018-05-16T04:13:59.965Z,30
2018-05-16T04:15:10.037Z,30
2018-05-16T04:16:20.132Z,35
2018-05-16T04:17:30.198Z,35
2018-05-16T04:18:40.007Z,35
2018-05-16T04:19:49.823Z,35
2018-05-16T04:20:59.908Z,35
2018-05-16T04:22:10.000Z,40
2018-05-16T04:23:20.076Z,45
2018-05-16T04:24:30.162Z,50
2018-05-16T04:25:40.230Z,50
2018-05-16T04:26:50.303Z,60
2018-05-16T04:28:00.124Z,65
2018-05-16T04:29:10.211Z,75
2018-05-16T04:30:20.304Z,85
2018-05-16T04:31:30.375Z,90
2018-05-16T04:32:40.572Z,105
2018-05-16T04:33:50.404Z,115
2018-05-16T04:35:00.486Z,135
2018-05-16T04:36:10.567Z,150
2018-05-16T04:37:20.644Z,175
2018-05-16T04:38:30.720Z,190
2018-05-16T04:39:40.320Z,245
2018-05-16T04:40:50.399Z,225
2018-05-16T04:42:00.555Z,220
2018-05-16T04:43:10.627Z,295
2018-05-16T04:44:20.745Z,340
2018-05-16T04:45:30.547Z,465
2018-05-16T04:46:40.362Z,445
2018-05-16T04:47:50.444Z,460
2018-05-16T04:49:00.525Z,455
2018-05-16T04:50:10.697Z,465
2018-05-16T04:51:20.780Z,415
2018-05-16T04:52:30.427Z,445
2018-05-16T04:53:40.524Z,490
2018-05-16T04:54:50.603Z,495
2018-05-16T04:56:00.717Z,485
2018-05-16T04:57:10.806Z,500
2018-05-16T04:58:20.896Z,510
2018-05-16T04:59:30.970Z,495
2018-05-16T05:00:40.783Z,495
2018-05-16T05:01:50.364Z,505
2018-05-16T05:03:00.173Z,495
2018-05-16T05:04:09.999Z,485
2018-05-16T05:05:19.546Z,480
2018-05-16T05:06:29.627Z,460
2018-05-16T05:07:39.694Z,475
2018-05-16T05:08:49.602Z,485
2018-05-16T05:09:59.683Z,495
2018-05-16T05:11:09.489Z,510
2018-05-16T05:12:19.313Z,500
2018-05-16T05:13:29.452Z,505
2018-05-16T05:14:39.533Z,510
2018-05-16T05:15:49.615Z,515
2018-05-16T05:16:59.701Z,255
2018-05-16T05:18:10.033Z,325
2018-05-16T05:19:20.131Z,215
2018-05-16T05:20:29.954Z,175
2018-05-16T05:21:39.508Z,160
2018-05-16T05:22:49.620Z,165
2018-05-16T05:23:59.831Z,170
2018-05-16T05:25:09.398Z,355
2018-05-16T05:26:19.468Z,185
2018-05-16T05:27:29.550Z,200
2018-05-16T05:28:39.365Z,405
2018-05-16T05:29:49.438Z,400
2018-05-16T05:30:59.537Z,380
2018-05-16T05:32:09.629Z,405
2018-05-16T05:33:19.457Z,305
2018-05-16T05:34:29.534Z,405
2018-05-16T05:35:39.612Z,425
2018-05-16T05:36:49.877Z,405
2018-05-16T05:37:59.708Z,340
2018-05-16T05:39:09.787Z,255
2018-05-16T05:40:19.970Z,375
2018-05-16T05:41:29.792Z,250
2018-05-16T05:42:39.672Z,230
2018-05-16T05:43:49.744Z,210
2018-05-16T05:44:59.830Z,215
2018-05-16T05:46:09.925Z,210
2018-05-16T05:47:20.036Z,165
2018-05-16T05:48:29.603Z,150
2018-05-16T05:49:39.422Z,140
2018-05-16T05:50:49.504Z,135
2018-05-16T05:51:59.617Z,135
2018-05-16T05:53:09.712Z,130
2018-05-16T05:54:19.837Z,130
2018-05-16T05:55:29.388Z,130
2018-05-16T05:56:39.292Z,130
2018-05-16T05:57:49.107Z,130
2018-05-16T05:58:59.199Z,130
2018-05-16T06:00:09.426Z,130
2018-05-16T06:01:19.357Z,130
2018-05-16T06:02:29.440Z,135
2018-05-16T06:03:39.527Z,130
2018-05-16T06:04:49.610Z,130
2018-05-16T06:05:59.743Z,135
2018-05-16T06:07:09.563Z,135
2018-05-16T06:08:19.643Z,140
2018-05-16T06:09:29.738Z,140
2018-05-16T06:10:39.819Z,140
2018-05-16T06:11:49.906Z,150
2018-05-16T06:13:00.106Z,145
2018-05-16T06:14:10.174Z,140
2018-05-16T06:15:20.268Z,135
2018-05-16T06:16:30.073Z,135
2018-05-16T06:17:39.947Z,135
2018-05-16T06:18:50.025Z,135
2018-05-16T06:20:00.107Z,130
2018-05-16T06:21:10.184Z,130
2018-05-16T06:22:20.279Z,135
2018-05-16T06:23:30.145Z,140
2018-05-16T06:24:40.043Z,150
2018-05-16T06:25:50.134Z,165
2018-05-16T06:27:00.452Z,170
2018-05-16T06:28:10.558Z,180
2018-05-16T06:29:20.652Z,190
2018-05-16T06:30:30.723Z,200
2018-05-16T06:31:40.793Z,200
2018-05-16T06:32:51.393Z,205
2018-05-16T06:34:01.484Z,215
2018-05-16T06:35:11.569Z,225
2018-05-16T06:36:21.451Z,230
2018-05-16T06:37:31.564Z,240
2018-05-16T06:38:41.651Z,260
2018-05-16T06:39:51.754Z,250
2018-05-16T06:41:01.847Z,250
2018-05-16T06:42:11.933Z,250
2018-05-16T06:43:21.780Z,245
2018-05-16T06:44:31.601Z,250
2018-05-16T06:45:41.700Z,235
2018-05-16T06:46:51.920Z,235
2018-05-16T06:48:02.005Z,230
2018-05-16T06:49:12.083Z,230
2018-05-16T06:50:22.175Z,220
2018-05-16T06:51:32.005Z,220
2018-05-16T06:52:41.835Z,220
2018-05-16T06:53:51.927Z,230
2018-05-16T06:55:02.035Z,245
2018-05-16T06:56:12.117Z,260
2018-05-16T06:57:22.196Z,275
2018-05-16T06:58:32.077Z,290
2018-05-16T06:59:42.143Z,305
2018-05-16T07:00:52.224Z,305
2018-05-16T07:02:02.313Z,340
2018-05-16T07:03:12.443Z,325
2018-05-16T07:04:22.663Z,305
2018-05-16T07:05:32.488Z,305
2018-05-16T07:06:42.572Z,290
2018-05-16T07:07:52.652Z,280
2018-05-16T07:09:02.742Z,285
2018-05-16T07:10:12.570Z,290
2018-05-16T07:11:22.391Z,295
2018-05-16T07:12:32.474Z,300
2018-05-16T07:13:42.890Z,310
2018-05-16T07:14:52.978Z,300
2018-05-16T07:16:03.068Z,280
2018-05-16T07:17:13.161Z,270
2018-05-16T07:18:23.258Z,270
2018-05-16T07:19:33.329Z,250
2018-05-16T07:20:42.881Z,225
2018-05-16T07:21:53.026Z,215
2018-05-16T07:23:03.317Z,210
2018-05-16T07:24:13.411Z,225
2018-05-16T07:25:23.225Z,265
2018-05-16T07:26:32.775Z,280
2018-05-16T07:27:42.843Z,295
2018-05-16T07:28:52.933Z,315
2018-05-16T07:30:03.018Z,320
2018-05-16T07:31:13.106Z,335
2018-05-16T07:32:23.334Z,365
2018-05-16T07:33:33.209Z,365
2018-05-16T07:34:43.034Z,375
2018-05-16T07:35:53.110Z,360
2018-05-16T07:37:03.204Z,345
2018-05-16T07:38:13.285Z,315
2018-05-16T07:39:22.904Z,305
2018-05-16T07:40:32.727Z,350
2018-05-16T07:41:42.809Z,345
2018-05-16T07:42:52.877Z,345
2018-05-16T07:44:02.695Z,350
2018-05-16T07:45:12.575Z,355
2018-05-16T07:46:22.459Z,360
2018-05-16T07:47:32.543Z,340
2018-05-16T07:48:42.698Z,310
2018-05-16T07:49:52.850Z,270
2018-05-16T07:51:02.978Z,255
2018-05-16T07:52:13.048Z,275
2018-05-16T07:53:23.495Z,275
2018-05-16T07:54:33.316Z,255
2018-05-16T07:55:43.149Z,265
2018-05-16T07:56:53.233Z,280
2018-05-16T07:58:03.688Z,290
2018-05-16T07:59:13.973Z,330
2018-05-16T08:00:23.818Z,295
2018-05-16T08:01:33.887Z,295
2018-05-16T08:02:43.974Z,300
2018-05-16T08:03:54.058Z,305
2018-05-16T08:05:04.131Z,315
2018-05-16T08:06:14.427Z,345
2018-05-16T08:07:25.230Z,305
2018-05-16T08:08:35.378Z,275
2018-05-16T08:09:45.478Z,260
2018-05-16T08:10:55.310Z,235
2018-05-16T08:12:05.116Z,235
2018-05-16T08:13:14.921Z,245
2018-05-16T08:14:24.738Z,255
2018-05-16T08:15:35.453Z,255
2018-05-16T08:16:45.536Z,255
2018-05-16T08:17:55.641Z,255
2018-05-16T08:19:05.560Z,255
2018-05-16T08:20:15.660Z,260
2018-05-16T08:21:25.960Z,265
2018-05-16T08:22:36.394Z,315
2018-05-16T08:23:46.475Z,305
2018-05-16T08:24:56.022Z,290
2018-05-16T08:26:06.348Z,305
2018-05-16T08:27:16.894Z,285
2018-05-16T08:28:27.233Z,300
2018-05-16T08:29:37.067Z,290
2018-05-16T08:30:47.154Z,265
2018-05-16T08:31:57.271Z,260
2018-05-16T08:33:07.465Z,260
2018-05-16T08:34:17.571Z,260
2018-05-16T08:35:27.745Z,265
2018-05-16T08:36:37.942Z,295
2018-05-16T08:37:48.106Z,260
2018-05-16T08:38:57.953Z,250
2018-05-16T08:40:08.023Z,245
2018-05-16T08:41:17.846Z,250
2018-05-16T08:42:27.995Z,265
2018-05-16T08:43:38.154Z,245
2018-05-16T08:44:48.317Z,245
2018-05-16T08:45:58.416Z,245
2018-05-16T08:47:08.604Z,245
2018-05-16T08:48:18.685Z,245
2018-05-16T08:49:29.001Z,250
2018-05-16T08:50:39.080Z,260
2018-05-16T08:51:49.166Z,265
2018-05-16T08:52:59.331Z,290
2018-05-16T08:54:09.407Z,325
2018-05-16T08:55:19.570Z,290
2018-05-16T08:56:29.380Z,275
2018-05-16T08:57:39.464Z,270
2018-05-16T08:58:49.552Z,270
2018-05-16T08:59:59.645Z,275
2018-05-16T09:01:09.935Z,275
2018-05-16T09:02:20.096Z,280
2018-05-16T09:03:32.648Z,325
2018-05-16T09:04:44.860Z,290
2018-05-16T09:05:57.949Z,260
2018-05-16T09:07:08.527Z,255
2018-05-16T09:08:18.347Z,260
2018-05-16T09:09:28.172Z,265
2018-05-16T09:10:37.750Z,260
2018-05-16T09:11:47.850Z,265
2018-05-16T09:12:58.017Z,260
2018-05-16T09:14:07.854Z,255
2018-05-16T09:15:17.956Z,255
2018-05-16T09:16:28.070Z,255
2018-05-16T09:17:38.161Z,265
2018-05-16T09:18:48.274Z,280
2018-05-16T09:19:58.170Z,280
2018-05-16T09:21:08.279Z,345
2018-05-16T09:22:18.381Z,365
2018-05-16T09:23:28.474Z,355
2018-05-16T09:24:38.299Z,345
2018-05-16T09:25:48.465Z,290
2018-05-16T09:26:58.640Z,285
2018-05-16T09:28:08.737Z,285
2018-05-16T09:29:18.846Z,295
2018-05-16T09:30:28.983Z,310
2018-05-16T09:31:39.090Z,305
2018-05-16T09:32:49.168Z,340
2018-05-16T09:33:59.286Z,365
2018-05-16T09:35:09.094Z,350
2018-05-16T09:36:19.197Z,350
2018-05-16T09:37:29.059Z,365
2018-05-16T09:38:39.181Z,320
2018-05-16T09:39:49.274Z,315
2018-05-16T09:40:59.380Z,305
2018-05-16T09:42:09.492Z,295
2018-05-16T09:43:19.601Z,300
2018-05-16T09:44:29.701Z,325
2018-05-16T09:45:40.069Z,325
2018-05-16T09:46:50.164Z,325
2018-05-16T09:48:00.288Z,275
2018-05-16T09:49:10.396Z,280
2018-05-16T09:50:20.515Z,275
2018-05-16T09:51:30.882Z,245
2018-05-16T09:52:40.978Z,225
2018-05-16T09:53:51.072Z,225
2018-05-16T09:55:01.205Z,285
2018-05-16T09:56:11.304Z,240
2018-05-16T09:57:21.393Z,270
2018-05-16T09:58:31.482Z,275
2018-05-16T09:59:41.637Z,265
2018-05-16T10:00:51.453Z,255
2018-05-16T10:02:01.561Z,270
2018-05-16T10:03:11.669Z,275
2018-05-16T10:04:21.760Z,285
2018-05-16T10:05:31.945Z,260
2018-05-16T10:06:42.043Z,275
2018-05-16T10:07:52.128Z,275
2018-05-16T10:09:02.266Z,260
2018-05-16T10:10:12.334Z,275
2018-05-16T10:11:22.176Z,275
2018-05-16T10:12:32.038Z,280
2018-05-16T10:13:41.604Z,280
2018-05-16T10:14:51.691Z,275
2018-05-16T10:16:01.781Z,260
2018-05-16T10:17:12.266Z,285
2018-05-16T10:18:22.354Z,270
2018-05-16T10:19:32.182Z,270
2018-05-16T10:20:42.276Z,260
2018-05-16T10:21:52.380Z,290
2018-05-16T10:23:02.502Z,290
2018-05-16T10:24:12.589Z,290
2018-05-16T10:25:22.773Z,255
2018-05-16T10:26:32.866Z,250
2018-05-16T10:27:42.740Z,255
2018-05-16T10:28:52.826Z,270
2018-05-16T10:30:02.416Z,285
2018-05-16T10:31:12.534Z,290
2018-05-16T10:32:22.682Z,360
2018-05-16T10:33:32.777Z,290
2018-05-16T10:34:42.868Z,335
2018-05-16T10:35:52.989Z,335
2018-05-16T10:37:03.072Z,255
2018-05-16T10:38:13.164Z,245
2018-05-16T10:39:23.015Z,255
2018-05-16T10:40:33.123Z,330
2018-05-16T10:41:43.526Z,330
2018-05-16T10:42:53.358Z,360
2018-05-16T10:44:03.456Z,360
2018-05-16T10:45:13.029Z,360
2018-05-16T10:46:23.134Z,360
2018-05-16T10:47:33.222Z,365
2018-05-16T10:48:43.313Z,340
2018-05-16T10:49:53.398Z,355
2018-05-16T10:51:03.501Z,345
2018-05-16T10:52:13.523Z,340
2018-05-16T10:53:23.397Z,320
2018-05-16T10:54:33.224Z,240
2018-05-16T10:55:43.064Z,240
2018-05-16T10:56:53.174Z,240
2018-05-16T10:58:03.270Z,250
2018-05-16T10:59:13.365Z,275
2018-05-16T11:00:23.471Z,380
2018-05-16T11:01:33.310Z,385
2018-05-16T11:02:43.422Z,360
2018-05-16T11:03:53.832Z,350
2018-05-16T11:05:03.932Z,335
2018-05-16T11:06:13.773Z,325
2018-05-16T11:07:23.613Z,310
2018-05-16T11:08:33.755Z,220
2018-05-16T11:09:43.898Z,310
2018-05-16T11:10:54.015Z,315
2018-05-16T11:12:04.125Z,320
2018-05-16T11:13:14.020Z,270
2018-05-16T11:14:23.844Z,315
2018-05-16T11:15:33.666Z,310
2018-05-16T11:16:43.753Z,290
2018-05-16T11:17:53.846Z,305
2018-05-16T11:19:04.017Z,310
2018-05-16T11:20:14.125Z,315
2018-05-16T11:21:24.540Z,325
2018-05-16T11:22:34.298Z,335
2018-05-16T11:23:44.128Z,340
2018-05-16T11:24:54.282Z,345
2018-05-16T11:26:04.382Z,345
2018-05-16T11:27:14.486Z,345
2018-05-16T11:28:24.571Z,340
2018-05-16T11:29:34.396Z,340
2018-05-16T11:30:44.540Z,340
2018-05-16T11:31:54.394Z,335
2018-05-16T11:33:04.503Z,245
2018-05-16T11:34:14.633Z,235
2018-05-16T11:35:24.761Z,270
2018-05-16T11:36:34.980Z,225
2018-05-16T11:37:44.917Z,220
2018-05-16T11:38:54.513Z,245
2018-05-16T11:40:04.352Z,305
2018-05-16T11:41:14.451Z,320
2018-05-16T11:42:24.529Z,315
2018-05-16T11:43:34.639Z,310
2018-05-16T11:44:44.747Z,310
2018-05-16T11:45:54.584Z,305
2018-05-16T11:48:14.029Z,290
2018-05-16T11:49:24.149Z,180
2018-05-16T11:50:34.232Z,285
2018-05-16T11:51:44.322Z,275
2018-05-16T11:52:54.423Z,275
2018-05-16T11:54:04.573Z,175
2018-05-16T11:55:14.667Z,175
2018-05-16T11:56:24.760Z,285
2018-05-16T11:57:34.870Z,285
2018-05-16T11:58:44.964Z,290
2018-05-16T11:59:55.055Z,310
2018-05-16T12:01:05.141Z,320
2018-05-16T12:02:15.228Z,315
2018-05-16T12:03:25.349Z,320
2018-05-16T12:04:35.151Z,320
2018-05-16T12:05:44.714Z,330
2018-05-16T12:06:54.806Z,330
2018-05-16T12:08:04.889Z,325
2018-05-16T12:09:14.956Z,315
2018-05-16T12:10:25.160Z,295
2018-05-16T12:11:35.304Z,290
2018-05-16T12:12:45.386Z,260
2018-05-16T12:13:55.292Z,320
2018-05-16T12:15:05.742Z,330
2018-05-16T12:16:15.875Z,335
2018-05-16T12:17:25.976Z,335
2018-05-16T12:18:36.076Z,340
2018-05-16T12:19:45.922Z,335
2018-05-16T12:20:56.000Z,340
2018-05-16T12:22:06.101Z,350
2018-05-16T12:23:16.213Z,350
2018-05-16T12:24:26.330Z,355
2018-05-16T12:25:36.408Z,355
2018-05-16T12:26:46.220Z,355
2018-05-16T12:27:56.300Z,355
2018-05-16T12:29:07.093Z,355
2018-05-16T12:30:17.209Z,355
2018-05-16T12:31:27.310Z,360
2018-05-16T12:32:37.405Z,360
2018-05-16T12:33:47.230Z,320
2018-05-16T12:34:56.851Z,300
2018-05-16T12:36:07.035Z,305
2018-05-16T12:37:17.130Z,320
2018-05-16T12:38:27.246Z,310
2018-05-16T12:39:37.339Z,305
2018-05-16T12:40:47.498Z,265
2018-05-16T12:41:57.306Z,260
2018-05-16T12:43:07.403Z,275
2018-05-16T12:44:17.220Z,270
2018-05-16T12:45:27.383Z,265
2018-05-16T12:46:37.799Z,185
2018-05-16T12:47:47.894Z,195
2018-05-16T12:48:57.995Z,200
2018-05-16T12:50:07.853Z,290
2018-05-16T12:51:17.707Z,210
2018-05-16T12:52:27.612Z,235
2018-05-16T12:53:37.784Z,190
2018-05-16T12:54:47.622Z,210
2018-05-16T12:55:57.986Z,185
2018-05-16T12:57:08.083Z,235
2018-05-16T12:58:18.253Z,205
2018-05-16T12:59:28.360Z,290
2018-05-16T13:00:38.476Z,310
2018-05-16T13:01:48.572Z,310
2018-05-16T13:02:58.737Z,315
2018-05-16T13:04:08.908Z,315
2018-05-16T13:05:18.536Z,240
2018-05-16T13:06:28.640Z,250
2018-05-16T13:07:38.703Z,260
2018-05-16T13:08:48.830Z,250
2018-05-16T13:09:58.958Z,240
2018-05-16T13:11:09.072Z,225
2018-05-16T13:12:18.895Z,205
2018-05-16T13:13:28.999Z,200
2018-05-16T13:14:39.098Z,190
2018-05-16T13:15:49.260Z,255
2018-05-16T13:16:59.359Z,245
2018-05-16T13:18:09.860Z,250
2018-05-16T13:19:20.080Z,255
2018-05-16T13:20:30.252Z,260
2018-05-16T13:21:40.838Z,205
2018-05-16T13:22:50.944Z,230
2018-05-16T13:24:01.052Z,215
2018-05-16T13:25:11.145Z,195
2018-05-16T13:26:20.965Z,270
2018-05-16T13:27:30.801Z,285
2018-05-16T13:28:40.900Z,275
2018-05-16T13:29:50.999Z,270
2018-05-16T13:31:01.105Z,265
2018-05-16T13:32:11.217Z,260
2018-05-16T13:33:21.303Z,265
2018-05-16T13:34:31.141Z,265
2018-05-16T13:35:41.128Z,270
2018-05-16T13:36:51.239Z,280
2018-05-16T13:38:01.490Z,285
2018-05-16T13:39:11.792Z,280
2018-05-16T13:40:21.905Z,280
2018-05-16T13:41:32.020Z,280
2018-05-16T13:42:41.875Z,285
2018-05-16T13:43:51.977Z,230
2018-05-16T13:45:02.150Z,235
2018-05-16T13:46:12.250Z,280
2018-05-16T13:47:22.367Z,210
2018-05-16T13:48:32.476Z,255
2018-05-16T13:49:42.576Z,275
2018-05-16T13:50:52.689Z,275
2018-05-16T13:52:02.544Z,275
2018-05-16T13:53:12.664Z,280
2018-05-16T13:54:22.762Z,285
2018-05-16T13:55:32.867Z,285
2018-05-16T13:56:42.986Z,270
2018-05-16T13:57:53.083Z,255
2018-05-16T13:59:03.180Z,245
2018-05-16T14:00:13.492Z,235
2018-05-16T14:01:23.686Z,235
2018-05-16T14:02:33.834Z,220
2018-05-16T14:03:44.036Z,205
2018-05-16T14:04:53.867Z,200
2018-05-16T14:06:03.975Z,200
2018-05-16T14:07:14.078Z,195
2018-05-16T14:08:23.962Z,190
2018-05-16T14:09:33.824Z,145
2018-05-16T14:10:43.720Z,165
2018-05-16T14:11:53.800Z,150
2018-05-16T14:13:03.884Z,195
2018-05-16T14:14:13.976Z,200
2018-05-16T14:15:24.425Z,195
2018-05-16T14:16:34.597Z,200
2018-05-16T14:17:44.693Z,200
2018-05-16T14:18:54.556Z,195
2018-05-16T14:20:04.936Z,190
2018-05-16T14:21:14.778Z,190
2018-05-16T14:22:24.687Z,190
2018-05-16T14:23:34.513Z,190
2018-05-16T14:24:44.600Z,190
2018-05-16T14:25:54.757Z,190
2018-05-16T14:27:04.848Z,190
2018-05-16T14:28:14.679Z,190
2018-05-16T14:29:24.767Z,190
2018-05-16T14:30:34.848Z,185
2018-05-16T14:31:44.673Z,185
2018-05-16T14:32:54.504Z,185
2018-05-16T14:34:04.084Z,185
2018-05-16T14:35:14.208Z,185
2018-05-16T14:36:24.501Z,185
2018-05-16T14:37:34.628Z,185
2018-05-16T14:38:44.724Z,185
2018-05-16T14:39:54.814Z,185
2018-05-16T14:41:04.933Z,185
2018-05-16T14:42:15.028Z,185
2018-05-16T14:43:24.858Z,185
2018-05-16T14:44:34.668Z,190
2018-05-16T14:45:44.766Z,190
2018-05-16T14:46:54.889Z,190
2018-05-16T14:48:04.991Z,190
2018-05-16T14:49:15.083Z,190
2018-05-16T14:50:25.197Z,190
2018-05-16T14:51:35.298Z,190
2018-05-16T14:52:45.387Z,195
2018-05-16T14:53:55.476Z,190
2018-05-16T14:55:05.649Z,190
2018-05-16T14:56:15.494Z,190
2018-05-16T14:57:25.592Z,185
2018-05-16T14:58:35.697Z,185
2018-05-16T14:59:45.791Z,180
2018-05-16T15:00:55.620Z,190
2018-05-16T15:02:05.465Z,145
2018-05-16T15:03:15.286Z,130
2018-05-16T15:04:25.379Z,140
2018-05-16T15:05:35.199Z,140
2018-05-16T15:06:45.293Z,130
2018-05-16T15:07:55.135Z,165
2018-05-16T15:09:05.227Z,130
2018-05-16T15:10:15.064Z,130
2018-05-16T15:11:24.899Z,125
2018-05-16T15:12:34.989Z,140
2018-05-16T15:13:44.833Z,140
2018-05-16T15:14:55.324Z,140
2018-05-16T15:16:05.509Z,120
2018-05-16T15:17:15.605Z,130
2018-05-16T15:18:25.694Z,115
2018-05-16T15:19:35.809Z,110
2018-05-16T15:20:45.105Z,105
2018-05-16T15:21:55.203Z,100
2018-05-16T15:23:05.365Z,95
2018-05-16T15:24:15.561Z,90
2018-05-16T15:25:25.749Z,90
2018-05-16T15:26:35.609Z,90
2018-05-16T15:27:45.768Z,85
2018-05-16T15:28:55.872Z,85
2018-05-16T15:30:06.005Z,85
2018-05-16T15:31:15.837Z,80
2018-05-16T15:32:25.673Z,80
2018-05-16T15:33:35.772Z,80
2018-05-16T15:34:45.871Z,80
2018-05-16T15:35:55.997Z,85
2018-05-16T15:37:06.085Z,90
2018-05-16T15:38:16.184Z,95
2018-05-16T15:39:26.006Z,95
2018-05-16T15:40:36.112Z,100
2018-05-16T15:41:46.251Z,100
2018-05-16T15:42:56.446Z,100
2018-05-16T15:44:06.551Z,105
2018-05-16T15:45:16.649Z,110
2018-05-16T15:46:26.519Z,115
2018-05-16T15:47:36.712Z,115
2018-05-16T15:48:46.864Z,120
2018-05-16T15:49:57.027Z,130
2018-05-16T15:51:07.194Z,135
2018-05-16T15:52:17.439Z,135
2018-05-16T15:53:27.650Z,130
2018-05-16T15:54:37.815Z,125
2018-05-16T15:55:47.908Z,120
2018-05-16T15:56:58.018Z,120
2018-05-16T15:58:08.119Z,115
2018-05-16T15:59:18.288Z,115
2018-05-16T16:00:28.109Z,110
2018-05-16T16:01:38.302Z,105
2018-05-16T16:02:48.408Z,100
2018-05-16T16:03:58.533Z,100
2018-05-16T16:05:08.729Z,100
2018-05-16T16:06:18.838Z,110
2018-05-16T16:07:28.925Z,110
2018-05-16T16:08:38.768Z,115
2018-05-16T16:09:48.855Z,120
2018-05-16T16:10:58.938Z,130
2018-05-16T16:12:09.054Z,140
2018-05-16T16:13:18.885Z,140
2018-05-16T16:14:28.707Z,140
2018-05-16T16:15:38.797Z,135
2018-05-16T16:16:48.895Z,130
2018-05-16T16:17:58.983Z,130
2018-05-16T16:19:08.819Z,125
2018-05-16T16:20:18.379Z,120
2018-05-16T16:21:28.226Z,115
2018-05-16T16:22:38.306Z,110
2018-05-16T16:23:48.511Z,105
2018-05-16T16:24:58.598Z,100
2018-05-16T16:26:08.698Z,95
2018-05-16T16:27:18.792Z,90
2018-05-16T16:28:28.923Z,90
2018-05-16T16:29:39.042Z,90
2018-05-16T16:30:48.873Z,90
2018-05-16T16:31:58.955Z,90
2018-05-16T16:33:09.048Z,95
2018-05-16T16:34:19.138Z,95
2018-05-16T16:35:29.238Z,85
2018-05-16T16:36:39.316Z,80
2018-05-16T16:37:49.432Z,85
2018-05-16T16:39:00.040Z,80
2018-05-16T16:40:10.468Z,80
2018-05-16T16:41:20.567Z,80
2018-05-16T16:42:30.677Z,75
2018-05-16T16:43:40.783Z,80
2018-05-16T16:44:51.075Z,80
2018-05-16T16:46:01.211Z,80
2018-05-16T16:47:11.575Z,75
2018-05-16T16:48:21.742Z,75
2018-05-16T16:49:31.596Z,75
2018-05-16T16:50:41.743Z,80
2018-05-16T16:51:51.376Z,75